Terminal Aerodrome Forecast
Issued by NWS Nashville, TN

Home | Current Version | Previous Version | Text Only | Print | Product List | Glossary On
Versions: 1 2 3 4 5 6 7 8 9 10 11 12 13 14 15 16 17 18 19 20 21 22 23 24 25 26 27 28
840
FTUS44 KOHX 211120
TAFBNA
TAF
KBNA 211120Z 2112/2212 19015G21KT P6SM BKN025
     FM211500 22009KT 6SM -SHRA OVC015
     FM211700 29008KT 5SM -SHRA OVC015
     FM220200 02006KT 5SM -SHRA OVC007
     FM220700 08004KT 2SM SHRA OVC007=

USA.gov is the U.S. government's official web portal to all federal, state and local government web resources and services.